sensor_id;sensor_type;location;lat;lon;timestamp;temperature;humidity
3566;DHT22;1797;51.844;7.684;2023-06-14T00:01:27;18.30;99.90
3566;DHT22;1797;51.844;7.684;2023-06-14T00:03:52;18.20;99.90
3566;DHT22;1797;51.844;7.684;2023-06-14T00:06:19;18.20;99.90
3566;DHT22;1797;51.844;7.684;2023-06-14T00:08:44;18.10;99.90
3566;DHT22;1797;51.844;7.684;2023-06-14T00:11:10;18.10;99.90
3566;DHT22;1797;51.844;7.684;2023-06-14T00:13:36;17.90;99.90
3566;DHT22;1797;51.844;7.684;2023-06-14T00:16:02;17.90;99.90
3566;DHT22;1797;51.844;7.684;2023-06-14T00:18:29;17.90;99.90
3566;DHT22;1797;51.844;7.684;2023-06-14T00:20:55;17.80;99.90
3566;DHT22;1797;51.844;7.684;2023-06-14T00:23:21;17.80;99.90
3566;DHT22;1797;51.844;7.684;2023-06-14T00:25:47;17.70;99.90
3566;DHT22;1797;51.844;7.684;2023-06-14T00:28:13;17.70;99.90
3566;DHT22;1797;51.844;7.684;2023-06-14T00:30:38;17.70;99.90
3566;DHT22;1797;51.844;7.684;2023-06-14T00:33:05;17.70;99.90
3566;DHT22;1797;51.844;7.684;2023-06-14T00:35:30;17.80;99.90
3566;DHT22;1797;51.844;7.684;2023-06-14T00:37:56;17.70;99.90
3566;DHT22;1797;51.844;7.684;2023-06-14T00:40:22;17.70;99.90
3566;DHT22;1797;51.844;7.684;2023-06-14T00:42:47;17.70;99.90
3566;DHT22;1797;51.844;7.684;2023-06-14T00:45:13;17.70;99.90
3566;DHT22;1797;51.844;7.684;2023-06-14T00:47:41;17.60;99.90
3566;DHT22;1797;51.844;7.684;2023-06-14T00:50:07;17.60;99.90
3566;DHT22;1797;51.844;7.684;2023-06-14T00:52:34;17.60;99.90
3566;DHT22;1797;51.844;7.684;2023-06-14T00:55:00;17.60;99.90
3566;DHT22;1797;51.844;7.684;2023-06-14T00:57:27;17.60;99.90
3566;DHT22;1797;51.844;7.684;2023-06-14T00:59:53;17.50;99.90
3566;DHT22;1797;51.844;7.684;2023-06-14T01:02:19;17.50;99.90
3566;DHT22;1797;51.844;7.684;2023-06-14T01:04:47;17.50;99.90
3566;DHT22;1797;51.844;7.684;2023-06-14T01:13:04;17.40;99.90
3566;DHT22;1797;51.844;7.684;2023-06-14T01:15:31;17.30;99.90
3566;DHT22;1797;51.844;7.684;2023-06-14T01:17:57;17.20;99.90
3566;DHT22;1797;51.844;7.684;2023-06-14T01:20:29;17.20;99.90
3566;DHT22;1797;51.844;7.684;2023-06-14T01:22:56;17.20;99.90
3566;DHT22;1797;51.844;7.684;2023-06-14T01:25:22;17.20;99.90
3566;DHT22;1797;51.844;7.684;2023-06-14T01:27:50;17.20;99.90
3566;DHT22;1797;51.844;7.684;2023-06-14T01:30:17;17.10;99.90
3566;DHT22;1797;51.844;7.684;2023-06-14T01:32:44;17.10;99.90
3566;DHT22;1797;51.844;7.684;2023-06-14T01:35:10;17.10;99.90
3566;DHT22;1797;51.844;7.684;2023-06-14T01:37:36;17.10;99.90
3566;DHT22;1797;51.844;7.684;2023-06-14T01:40:04;17.10;99.90
3566;DHT22;1797;51.844;7.684;2023-06-14T01:42:32;17.00;99.90
3566;DHT22;1797;51.844;7.684;2023-06-14T01:44:59;17.00;99.90
3566;DHT22;1797;51.844;7.684;2023-06-14T01:47:26;17.10;99.90
3566;DHT22;1797;51.844;7.684;2023-06-14T01:49:52;16.90;99.90
3566;DHT22;1797;51.844;7.684;2023-06-14T01:52:17;16.90;99.90
3566;DHT22;1797;51.844;7.684;2023-06-14T01:54:44;16.90;99.90
3566;DHT22;1797;51.844;7.684;2023-06-14T01:57:11;16.90;99.90
3566;DHT22;1797;51.844;7.684;2023-06-14T01:59:37;16.80;99.90
3566;DHT22;1797;51.844;7.684;2023-06-14T02:02:03;16.80;99.90
3566;DHT22;1797;51.844;7.684;2023-06-14T02:04:29;16.70;99.90
3566;DHT22;1797;51.844;7.684;2023-06-14T02:06:54;16.70;99.90
3566;DHT22;1797;51.844;7.684;2023-06-14T02:09:20;16.70;99.90
3566;DHT22;1797;51.844;7.684;2023-06-14T02:11:45;16.70;99.90
3566;DHT22;1797;51.844;7.684;2023-06-14T02:14:11;16.70;99.90
3566;DHT22;1797;51.844;7.684;2023-06-14T02:16:37;16.70;99.90
3566;DHT22;1797;51.844;7.684;2023-06-14T02:19:04;16.60;99.90
3566;DHT22;1797;51.844;7.684;2023-06-14T02:21:30;16.60;99.90
3566;DHT22;1797;51.844;7.684;2023-06-14T02:23:55;16.50;99.90
3566;DHT22;1797;51.844;7.684;2023-06-14T02:26:21;16.50;99.90
3566;DHT22;1797;51.844;7.684;2023-06-14T02:28:48;16.60;99.90
3566;DHT22;1797;51.844;7.684;2023-06-14T02:31:13;16.50;99.90
3566;DHT22;1797;51.844;7.684;2023-06-14T02:33:40;16.50;99.90
3566;DHT22;1797;51.844;7.684;2023-06-14T02:36:06;16.40;99.90
3566;DHT22;1797;51.844;7.684;2023-06-14T02:38:31;16.40;99.90
3566;DHT22;1797;51.844;7.684;2023-06-14T02:40:57;16.30;99.90
3566;DHT22;1797;51.844;7.684;2023-06-14T02:43:24;16.30;99.90
3566;DHT22;1797;51.844;7.684;2023-06-14T02:45:50;16.30;99.90
3566;DHT22;1797;51.844;7.684;2023-06-14T02:48:16;16.20;99.90
3566;DHT22;1797;51.844;7.684;2023-06-14T02:50:41;16.20;99.90
3566;DHT22;1797;51.844;7.684;2023-06-14T02:53:07;16.20;99.90
3566;DHT22;1797;51.844;7.684;2023-06-14T02:55:33;16.20;99.90
3566;DHT22;1797;51.844;7.684;2023-06-14T02:57:58;16.30;99.90
3566;DHT22;1797;51.844;7.684;2023-06-14T03:00:24;16.00;99.90
3566;DHT22;1797;51.844;7.684;2023-06-14T03:02:50;16.00;99.90
3566;DHT22;1797;51.844;7.684;2023-06-14T03:05:16;16.10;99.90
3566;DHT22;1797;51.844;7.684;2023-06-14T03:07:46;16.10;99.90
3566;DHT22;1797;51.844;7.684;2023-06-14T03:10:12;16.00;99.90
3566;DHT22;1797;51.844;7.684;2023-06-14T03:12:39;16.00;99.90
3566;DHT22;1797;51.844;7.684;2023-06-14T03:15:05;15.90;99.90
3566;DHT22;1797;51.844;7.684;2023-06-14T03:17:31;15.90;99.90
3566;DHT22;1797;51.844;7.684;2023-06-14T03:20:00;15.90;99.90
3566;DHT22;1797;51.844;7.684;2023-06-14T03:22:25;15.90;99.90
3566;DHT22;1797;51.844;7.684;2023-06-14T03:24:51;15.90;99.90
3566;DHT22;1797;51.844;7.684;2023-06-14T03:27:17;15.90;99.90
3566;DHT22;1797;51.844;7.684;2023-06-14T03:29:44;15.90;99.90
3566;DHT22;1797;51.844;7.684;2023-06-14T03:32:09;15.90;99.90
3566;DHT22;1797;51.844;7.684;2023-06-14T03:34:35;15.80;99.90
3566;DHT22;1797;51.844;7.684;2023-06-14T03:37:01;15.80;99.90
3566;DHT22;1797;51.844;7.684;2023-06-14T03:39:26;15.80;99.90
3566;DHT22;1797;51.844;7.684;2023-06-14T03:41:52;15.70;99.90
3566;DHT22;1797;51.844;7.684;2023-06-14T03:44:19;15.70;99.90
3566;DHT22;1797;51.844;7.684;2023-06-14T03:46:45;15.70;99.90
3566;DHT22;1797;51.844;7.684;2023-06-14T03:49:12;15.70;99.90
3566;DHT22;1797;51.844;7.684;2023-06-14T03:51:37;15.70;99.90
3566;DHT22;1797;51.844;7.684;2023-06-14T03:54:03;15.70;99.90
3566;DHT22;1797;51.844;7.684;2023-06-14T03:56:28;15.70;99.90
3566;DHT22;1797;51.844;7.684;2023-06-14T03:58:54;15.70;99.90
3566;DHT22;1797;51.844;7.684;2023-06-14T04:01:20;15.70;99.90
3566;DHT22;1797;51.844;7.684;2023-06-14T04:03:46;15.70;99.90
3566;DHT22;1797;51.844;7.684;2023-06-14T04:06:12;15.70;1.00
3566;DHT22;1797;51.844;7.684;2023-06-14T04:08:37;15.20;1.00
3566;DHT22;1797;51.844;7.684;2023-06-14T04:11:05;15.70;1.00
3566;DHT22;1797;51.844;7.684;2023-06-14T04:13:30;15.70;1.00
3566;DHT22;1797;51.844;7.684;2023-06-14T04:15:57;15.60;1.00
3566;DHT22;1797;51.844;7.684;2023-06-14T04:18:22;15.60;1.00
3566;DHT22;1797;51.844;7.684;2023-06-14T04:20:49;15.60;1.00
3566;DHT22;1797;51.844;7.684;2023-06-14T04:23:17;15.60;1.00
3566;DHT22;1797;51.844;7.684;2023-06-14T04:25:45;15.60;1.00
3566;DHT22;1797;51.844;7.684;2023-06-14T04:28:15;15.60;1.00
3566;DHT22;1797;51.844;7.684;2023-06-14T04:30:42;15.60;1.00
3566;DHT22;1797;51.844;7.684;2023-06-14T04:33:08;15.60;1.00
3566;DHT22;1797;51.844;7.684;2023-06-14T04:35:35;15.60;1.00
3566;DHT22;1797;51.844;7.684;2023-06-14T04:38:03;15.60;1.00
3566;DHT22;1797;51.844;7.684;2023-06-14T04:40:30;15.70;1.00
3566;DHT22;1797;51.844;7.684;2023-06-14T04:42:56;15.70;1.00
3566;DHT22;1797;51.844;7.684;2023-06-14T04:45:23;15.70;1.00
3566;DHT22;1797;51.844;7.684;2023-06-14T04:47:49;15.70;1.00
3566;DHT22;1797;51.844;7.684;2023-06-14T04:50:16;15.80;1.00
3566;DHT22;1797;51.844;7.684;2023-06-14T04:52:42;15.70;1.00
3566;DHT22;1797;51.844;7.684;2023-06-14T04:55:08;15.80;1.00
3566;DHT22;1797;51.844;7.684;2023-06-14T04:57:34;15.90;1.00
3566;DHT22;1797;51.844;7.684;2023-06-14T05:00:00;15.90;1.00
3566;DHT22;1797;51.844;7.684;2023-06-14T05:02:26;15.90;1.00
3566;DHT22;1797;51.844;7.684;2023-06-14T05:04:53;15.90;1.00
3566;DHT22;1797;51.844;7.684;2023-06-14T05:07:19;16.00;1.00
3566;DHT22;1797;51.844;7.684;2023-06-14T05:09:45;16.00;1.00
3566;DHT22;1797;51.844;7.684;2023-06-14T05:12:11;16.10;1.00
3566;DHT22;1797;51.844;7.684;2023-06-14T05:14:37;16.10;1.00
3566;DHT22;1797;51.844;7.684;2023-06-14T05:17:02;16.20;1.00
3566;DHT22;1797;51.844;7.684;2023-06-14T05:19:28;15.90;1.00
3566;DHT22;1797;51.844;7.684;2023-06-14T05:21:54;16.30;1.00
3566;DHT22;1797;51.844;7.684;2023-06-14T05:24:20;16.30;1.00
3566;DHT22;1797;51.844;7.684;2023-06-14T05:26:46;16.30;1.00
3566;DHT22;1797;51.844;7.684;2023-06-14T05:29:12;16.40;1.00
3566;DHT22;1797;51.844;7.684;2023-06-14T05:31:38;16.40;1.00
3566;DHT22;1797;51.844;7.684;2023-06-14T05:34:04;16.50;1.00
3566;DHT22;1797;51.844;7.684;2023-06-14T05:36:29;16.60;1.00
3566;DHT22;1797;51.844;7.684;2023-06-14T05:38:55;16.70;1.00
3566;DHT22;1797;51.844;7.684;2023-06-14T05:41:28;16.80;1.00
3566;DHT22;1797;51.844;7.684;2023-06-14T05:43:55;16.90;1.00
3566;DHT22;1797;51.844;7.684;2023-06-14T05:46:21;17.00;99.90
3566;DHT22;1797;51.844;7.684;2023-06-14T05:48:54;17.00;1.00
3566;DHT22;1797;51.844;7.684;2023-06-14T05:51:20;17.10;99.90
3566;DHT22;1797;51.844;7.684;2023-06-14T05:53:49;17.20;99.90
3566;DHT22;1797;51.844;7.684;2023-06-14T05:56:16;17.30;99.90
3566;DHT22;1797;51.844;7.684;2023-06-14T05:58:46;17.50;99.90
3566;DHT22;1797;51.844;7.684;2023-06-14T06:01:12;17.70;1.00
3566;DHT22;1797;51.844;7.684;2023-06-14T06:03:38;17.90;99.90
3566;DHT22;1797;51.844;7.684;2023-06-14T06:06:04;18.00;99.90
3566;DHT22;1797;51.844;7.684;2023-06-14T06:08:30;18.10;99.90
3566;DHT22;1797;51.844;7.684;2023-06-14T06:10:56;18.20;99.90
3566;DHT22;1797;51.844;7.684;2023-06-14T06:13:22;18.40;99.90
3566;DHT22;1797;51.844;7.684;2023-06-14T06:15:48;18.50;99.90
3566;DHT22;1797;51.844;7.684;2023-06-14T06:18:13;18.70;99.90
3566;DHT22;1797;51.844;7.684;2023-06-14T06:20:39;18.90;99.90
3566;DHT22;1797;51.844;7.684;2023-06-14T06:23:05;19.10;99.90
3566;DHT22;1797;51.844;7.684;2023-06-14T06:25:30;19.20;99.90
3566;DHT22;1797;51.844;7.684;2023-06-14T06:27:57;19.30;99.90
3566;DHT22;1797;51.844;7.684;2023-06-14T06:30:23;19.50;99.90
3566;DHT22;1797;51.844;7.684;2023-06-14T06:32:48;19.70;99.90
3566;DHT22;1797;51.844;7.684;2023-06-14T06:35:14;19.80;99.90
3566;DHT22;1797;51.844;7.684;2023-06-14T06:37:41;20.00;99.90
3566;DHT22;1797;51.844;7.684;2023-06-14T06:40:07;20.10;99.90
3566;DHT22;1797;51.844;7.684;2023-06-14T06:42:34;20.20;99.90
3566;DHT22;1797;51.844;7.684;2023-06-14T06:45:00;20.40;99.90
3566;DHT22;1797;51.844;7.684;2023-06-14T06:47:25;20.50;99.90
3566;DHT22;1797;51.844;7.684;2023-06-14T06:49:51;20.50;99.90
3566;DHT22;1797;51.844;7.684;2023-06-14T06:52:17;20.60;99.90
3566;DHT22;1797;51.844;7.684;2023-06-14T06:54:42;20.70;99.90
3566;DHT22;1797;51.844;7.684;2023-06-14T06:57:08;20.80;99.90
3566;DHT22;1797;51.844;7.684;2023-06-14T06:59:34;20.90;99.90
3566;DHT22;1797;51.844;7.684;2023-06-14T07:02:00;21.00;99.90
3566;DHT22;1797;51.844;7.684;2023-06-14T07:04:25;21.00;99.90
3566;DHT22;1797;51.844;7.684;2023-06-14T07:06:51;21.20;99.90
3566;DHT22;1797;51.844;7.684;2023-06-14T07:09:17;21.20;99.90
3566;DHT22;1797;51.844;7.684;2023-06-14T07:11:46;21.40;99.90
3566;DHT22;1797;51.844;7.684;2023-06-14T07:14:12;21.50;99.90
3566;DHT22;1797;51.844;7.684;2023-06-14T07:16:37;21.50;99.90
3566;DHT22;1797;51.844;7.684;2023-06-14T07:19:03;21.60;99.90
3566;DHT22;1797;51.844;7.684;2023-06-14T07:21:30;21.80;99.90
3566;DHT22;1797;51.844;7.684;2023-06-14T07:23:56;21.90;99.90
3566;DHT22;1797;51.844;7.684;2023-06-14T07:26:22;22.10;99.90
3566;DHT22;1797;51.844;7.684;2023-06-14T07:28:48;22.20;99.90
3566;DHT22;1797;51.844;7.684;2023-06-14T07:31:15;22.30;99.90
3566;DHT22;1797;51.844;7.684;2023-06-14T07:33:41;22.50;99.90
3566;DHT22;1797;51.844;7.684;2023-06-14T07:36:07;22.40;99.90
3566;DHT22;1797;51.844;7.684;2023-06-14T07:38:33;22.40;99.90
3566;DHT22;1797;51.844;7.684;2023-06-14T07:40:59;22.50;99.90
3566;DHT22;1797;51.844;7.684;2023-06-14T07:43:25;22.60;99.90
3566;DHT22;1797;51.844;7.684;2023-06-14T07:45:51;22.90;99.90
3566;DHT22;1797;51.844;7.684;2023-06-14T07:48:16;23.10;99.90
3566;DHT22;1797;51.844;7.684;2023-06-14T07:50:42;23.20;99.90
3566;DHT22;1797;51.844;7.684;2023-06-14T07:53:08;23.40;99.90
3566;DHT22;1797;51.844;7.684;2023-06-14T07:55:34;23.70;99.90
3566;DHT22;1797;51.844;7.684;2023-06-14T07:58:02;23.70;99.90
3566;DHT22;1797;51.844;7.684;2023-06-14T08:00:28;23.80;99.90
3566;DHT22;1797;51.844;7.684;2023-06-14T08:02:54;23.60;99.90
3566;DHT22;1797;51.844;7.684;2023-06-14T08:05:24;23.40;99.90
3566;DHT22;1797;51.844;7.684;2023-06-14T08:07:51;22.90;99.90
3566;DHT22;1797;51.844;7.684;2023-06-14T08:10:16;22.90;99.90
3566;DHT22;1797;51.844;7.684;2023-06-14T08:12:42;22.90;99.90
3566;DHT22;1797;51.844;7.684;2023-06-14T08:15:08;22.70;99.90
3566;DHT22;1797;51.844;7.684;2023-06-14T08:17:34;22.90;99.90
3566;DHT22;1797;51.844;7.684;2023-06-14T08:20:00;22.90;99.90
3566;DHT22;1797;51.844;7.684;2023-06-14T08:22:25;23.00;99.90
3566;DHT22;1797;51.844;7.684;2023-06-14T08:24:53;23.10;99.90
3566;DHT22;1797;51.844;7.684;2023-06-14T08:27:19;23.50;99.90
3566;DHT22;1797;51.844;7.684;2023-06-14T08:29:45;23.90;99.90
3566;DHT22;1797;51.844;7.684;2023-06-14T08:32:11;24.30;99.90
3566;DHT22;1797;51.844;7.684;2023-06-14T08:34:36;24.40;99.90
3566;DHT22;1797;51.844;7.684;2023-06-14T08:37:02;24.60;99.90
3566;DHT22;1797;51.844;7.684;2023-06-14T08:39:27;24.50;99.90
3566;DHT22;1797;51.844;7.684;2023-06-14T08:41:54;24.30;99.90
3566;DHT22;1797;51.844;7.684;2023-06-14T08:44:22;24.00;99.90
3566;DHT22;1797;51.844;7.684;2023-06-14T08:46:48;23.90;99.90
3566;DHT22;1797;51.844;7.684;2023-06-14T08:49:16;24.10;99.90
3566;DHT22;1797;51.844;7.684;2023-06-14T08:51:43;24.40;99.90
3566;DHT22;1797;51.844;7.684;2023-06-14T08:54:11;24.70;99.90
3566;DHT22;1797;51.844;7.684;2023-06-14T08:56:38;25.10;99.90
3566;DHT22;1797;51.844;7.684;2023-06-14T08:59:07;25.20;99.90
3566;DHT22;1797;51.844;7.684;2023-06-14T09:01:35;25.10;99.90
3566;DHT22;1797;51.844;7.684;2023-06-14T09:04:02;24.60;99.90
3566;DHT22;1797;51.844;7.684;2023-06-14T09:06:28;24.20;99.90
3566;DHT22;1797;51.844;7.684;2023-06-14T09:08:54;23.90;99.90
3566;DHT22;1797;51.844;7.684;2023-06-14T09:11:22;24.30;99.90
3566;DHT22;1797;51.844;7.684;2023-06-14T09:13:48;24.50;99.90
3566;DHT22;1797;51.844;7.684;2023-06-14T09:16:14;24.40;99.90
3566;DHT22;1797;51.844;7.684;2023-06-14T09:18:42;24.60;99.90
3566;DHT22;1797;51.844;7.684;2023-06-14T09:21:10;24.80;99.90
3566;DHT22;1797;51.844;7.684;2023-06-14T09:23:41;24.90;99.90
3566;DHT22;1797;51.844;7.684;2023-06-14T09:26:08;24.90;99.90
3566;DHT22;1797;51.844;7.684;2023-06-14T09:28:34;25.10;99.90
3566;DHT22;1797;51.844;7.684;2023-06-14T09:31:01;25.10;99.90
3566;DHT22;1797;51.844;7.684;2023-06-14T09:33:26;25.20;99.90
3566;DHT22;1797;51.844;7.684;2023-06-14T09:35:54;25.50;99.90
3566;DHT22;1797;51.844;7.684;2023-06-14T09:38:20;26.00;99.90
3566;DHT22;1797;51.844;7.684;2023-06-14T09:40:46;26.50;99.90
3566;DHT22;1797;51.844;7.684;2023-06-14T09:43:11;27.10;99.90
3566;DHT22;1797;51.844;7.684;2023-06-14T09:45:38;27.10;99.90
3566;DHT22;1797;51.844;7.684;2023-06-14T09:48:07;27.20;99.90
3566;DHT22;1797;51.844;7.684;2023-06-14T09:50:34;27.10;99.90
3566;DHT22;1797;51.844;7.684;2023-06-14T09:53:06;26.80;99.90
3566;DHT22;1797;51.844;7.684;2023-06-14T09:55:35;26.90;99.90
3566;DHT22;1797;51.844;7.684;2023-06-14T09:58:04;26.80;99.90
3566;DHT22;1797;51.844;7.684;2023-06-14T10:00:32;26.70;99.90
3566;DHT22;1797;51.844;7.684;2023-06-14T10:03:03;26.60;99.90
3566;DHT22;1797;51.844;7.684;2023-06-14T10:05:32;26.90;99.90
3566;DHT22;1797;51.844;7.684;2023-06-14T10:08:09;27.20;99.90
3566;DHT22;1797;51.844;7.684;2023-06-14T10:10:39;27.40;99.90
3566;DHT22;1797;51.844;7.684;2023-06-14T10:13:06;27.80;99.90
3566;DHT22;1797;51.844;7.684;2023-06-14T10:18:27;28.30;99.90
3566;DHT22;1797;51.844;7.684;2023-06-14T10:23:50;28.00;99.90
3566;DHT22;1797;51.844;7.684;2023-06-14T10:26:21;28.00;99.90
3566;DHT22;1797;51.844;7.684;2023-06-14T10:29:01;28.30;99.90
3566;DHT22;1797;51.844;7.684;2023-06-14T10:31:46;28.50;99.90
3566;DHT22;1797;51.844;7.684;2023-06-14T10:34:12;28.90;99.90
3566;DHT22;1797;51.844;7.684;2023-06-14T10:36:46;29.10;99.90
3566;DHT22;1797;51.844;7.684;2023-06-14T10:39:25;29.10;99.90
3566;DHT22;1797;51.844;7.684;2023-06-14T10:41:53;29.10;99.90
3566;DHT22;1797;51.844;7.684;2023-06-14T10:46:54;29.40;99.90
3566;DHT22;1797;51.844;7.684;2023-06-14T10:49:20;29.20;99.90
3566;DHT22;1797;51.844;7.684;2023-06-14T10:52:02;28.50;99.90
3566;DHT22;1797;51.844;7.684;2023-06-14T10:54:28;28.00;99.90
3566;DHT22;1797;51.844;7.684;2023-06-14T10:56:54;28.10;99.90
3566;DHT22;1797;51.844;7.684;2023-06-14T10:59:20;28.30;99.90
3566;DHT22;1797;51.844;7.684;2023-06-14T11:04:50;28.70;99.90
3566;DHT22;1797;51.844;7.684;2023-06-14T11:10:40;29.20;99.90
3566;DHT22;1797;51.844;7.684;2023-06-14T11:13:09;29.20;99.90
3566;DHT22;1797;51.844;7.684;2023-06-14T11:15:38;29.10;99.90
3566;DHT22;1797;51.844;7.684;2023-06-14T11:18:07;29.20;99.90
3566;DHT22;1797;51.844;7.684;2023-06-14T11:20:36;29.70;99.90
3566;DHT22;1797;51.844;7.684;2023-06-14T11:23:03;30.20;99.90
3566;DHT22;1797;51.844;7.684;2023-06-14T11:25:29;30.30;99.90
3566;DHT22;1797;51.844;7.684;2023-06-14T11:27:55;30.60;99.90
3566;DHT22;1797;51.844;7.684;2023-06-14T11:30:21;30.80;99.90
3566;DHT22;1797;51.844;7.684;2023-06-14T11:32:49;30.60;99.90
3566;DHT22;1797;51.844;7.684;2023-06-14T11:35:16;30.20;99.90
3566;DHT22;1797;51.844;7.684;2023-06-14T11:37:42;30.30;99.90
3566;DHT22;1797;51.844;7.684;2023-06-14T11:40:10;30.20;99.90
3566;DHT22;1797;51.844;7.684;2023-06-14T11:42:37;30.00;99.90
3566;DHT22;1797;51.844;7.684;2023-06-14T11:45:06;29.40;99.90
3566;DHT22;1797;51.844;7.684;2023-06-14T11:47:32;29.30;99.90
3566;DHT22;1797;51.844;7.684;2023-06-14T11:49:59;29.50;99.90
3566;DHT22;1797;51.844;7.684;2023-06-14T11:52:25;29.90;99.90
3566;DHT22;1797;51.844;7.684;2023-06-14T11:54:52;30.50;99.90
3566;DHT22;1797;51.844;7.684;2023-06-14T11:57:18;31.10;99.90
3566;DHT22;1797;51.844;7.684;2023-06-14T11:59:44;31.60;99.90
3566;DHT22;1797;51.844;7.684;2023-06-14T12:02:17;31.70;99.90
3566;DHT22;1797;51.844;7.684;2023-06-14T12:04:47;31.60;99.90
3566;DHT22;1797;51.844;7.684;2023-06-14T12:07:17;30.80;99.90
3566;DHT22;1797;51.844;7.684;2023-06-14T12:12:24;30.10;99.90
3566;DHT22;1797;51.844;7.684;2023-06-14T12:14:55;30.60;99.90
3566;DHT22;1797;51.844;7.684;2023-06-14T12:17:21;31.00;99.90
3566;DHT22;1797;51.844;7.684;2023-06-14T12:19:49;31.50;99.90
3566;DHT22;1797;51.844;7.684;2023-06-14T12:22:16;31.90;99.90
3566;DHT22;1797;51.844;7.684;2023-06-14T12:24:44;32.20;99.90
3566;DHT22;1797;51.844;7.684;2023-06-14T12:27:10;32.40;99.90
3566;DHT22;1797;51.844;7.684;2023-06-14T12:29:44;32.50;99.90
3566;DHT22;1797;51.844;7.684;2023-06-14T12:32:10;32.00;99.90
3566;DHT22;1797;51.844;7.684;2023-06-14T12:34:35;31.40;99.90
3566;DHT22;1797;51.844;7.684;2023-06-14T12:37:01;31.00;99.90
3566;DHT22;1797;51.844;7.684;2023-06-14T12:39:28;30.70;99.90
3566;DHT22;1797;51.844;7.684;2023-06-14T12:41:55;30.60;99.90
3566;DHT22;1797;51.844;7.684;2023-06-14T12:44:21;30.20;99.90
3566;DHT22;1797;51.844;7.684;2023-06-14T12:46:46;30.00;99.90
3566;DHT22;1797;51.844;7.684;2023-06-14T12:49:12;30.30;99.90
3566;DHT22;1797;51.844;7.684;2023-06-14T12:51:39;30.60;99.90
3566;DHT22;1797;51.844;7.684;2023-06-14T12:54:05;30.80;99.90
3566;DHT22;1797;51.844;7.684;2023-06-14T12:56:31;31.10;99.90
3566;DHT22;1797;51.844;7.684;2023-06-14T12:58:58;31.10;99.90
3566;DHT22;1797;51.844;7.684;2023-06-14T13:01:24;30.70;99.90
3566;DHT22;1797;51.844;7.684;2023-06-14T13:03:50;30.20;99.90
3566;DHT22;1797;51.844;7.684;2023-06-14T13:06:17;30.40;99.90
3566;DHT22;1797;51.844;7.684;2023-06-14T13:08:42;30.90;99.90
3566;DHT22;1797;51.844;7.684;2023-06-14T13:11:08;30.80;99.90
3566;DHT22;1797;51.844;7.684;2023-06-14T13:13:34;30.50;99.90
3566;DHT22;1797;51.844;7.684;2023-06-14T13:16:00;30.30;99.90
3566;DHT22;1797;51.844;7.684;2023-06-14T13:18:26;30.30;99.90
3566;DHT22;1797;51.844;7.684;2023-06-14T13:20:52;30.30;99.90
3566;DHT22;1797;51.844;7.684;2023-06-14T13:23:17;30.40;99.90
3566;DHT22;1797;51.844;7.684;2023-06-14T13:25:43;30.40;99.90
3566;DHT22;1797;51.844;7.684;2023-06-14T13:28:09;30.70;99.90
3566;DHT22;1797;51.844;7.684;2023-06-14T13:30:34;31.10;99.90
3566;DHT22;1797;51.844;7.684;2023-06-14T13:33:01;31.60;99.90
3566;DHT22;1797;51.844;7.684;2023-06-14T13:35:27;32.00;99.90
3566;DHT22;1797;51.844;7.684;2023-06-14T13:37:52;32.40;99.90
3566;DHT22;1797;51.844;7.684;2023-06-14T13:40:18;32.70;99.90
3566;DHT22;1797;51.844;7.684;2023-06-14T13:42:44;32.40;99.90
3566;DHT22;1797;51.844;7.684;2023-06-14T13:45:11;31.90;99.90
3566;DHT22;1797;51.844;7.684;2023-06-14T13:47:37;31.70;99.90
3566;DHT22;1797;51.844;7.684;2023-06-14T13:50:04;31.20;99.90
3566;DHT22;1797;51.844;7.684;2023-06-14T13:52:30;30.40;99.90
3566;DHT22;1797;51.844;7.684;2023-06-14T13:54:56;30.00;99.90
3566;DHT22;1797;51.844;7.684;2023-06-14T13:57:22;29.60;99.90
3566;DHT22;1797;51.844;7.684;2023-06-14T13:59:47;29.40;99.90
3566;DHT22;1797;51.844;7.684;2023-06-14T14:02:13;29.30;99.90
3566;DHT22;1797;51.844;7.684;2023-06-14T14:04:41;28.40;99.90
3566;DHT22;1797;51.844;7.684;2023-06-14T14:07:07;27.40;99.90
3566;DHT22;1797;51.844;7.684;2023-06-14T14:09:34;27.10;99.90
3566;DHT22;1797;51.844;7.684;2023-06-14T14:12:00;27.20;99.90
3566;DHT22;1797;51.844;7.684;2023-06-14T14:14:27;27.50;99.90
3566;DHT22;1797;51.844;7.684;2023-06-14T14:16:53;27.50;99.90
3566;DHT22;1797;51.844;7.684;2023-06-14T14:19:20;27.60;99.90
3566;DHT22;1797;51.844;7.684;2023-06-14T14:21:46;27.70;99.90
3566;DHT22;1797;51.844;7.684;2023-06-14T14:24:12;27.70;99.90
3566;DHT22;1797;51.844;7.684;2023-06-14T14:26:37;27.20;99.90
3566;DHT22;1797;51.844;7.684;2023-06-14T14:29:03;26.80;99.90
3566;DHT22;1797;51.844;7.684;2023-06-14T14:31:29;26.60;99.90
3566;DHT22;1797;51.844;7.684;2023-06-14T14:33:55;27.00;99.90
3566;DHT22;1797;51.844;7.684;2023-06-14T14:36:20;27.00;99.90
3566;DHT22;1797;51.844;7.684;2023-06-14T14:38:46;27.00;99.90
3566;DHT22;1797;51.844;7.684;2023-06-14T14:41:12;27.10;99.90
3566;DHT22;1797;51.844;7.684;2023-06-14T14:43:38;27.30;99.90
3566;DHT22;1797;51.844;7.684;2023-06-14T14:46:04;27.60;99.90
3566;DHT22;1797;51.844;7.684;2023-06-14T14:48:30;27.90;99.90
3566;DHT22;1797;51.844;7.684;2023-06-14T14:50:55;28.30;99.90
3566;DHT22;1797;51.844;7.684;2023-06-14T14:53:21;28.60;99.90
3566;DHT22;1797;51.844;7.684;2023-06-14T14:55:46;28.40;99.90
3566;DHT22;1797;51.844;7.684;2023-06-14T14:58:13;28.10;99.90
3566;DHT22;1797;51.844;7.684;2023-06-14T15:00:38;28.20;99.90
3566;DHT22;1797;51.844;7.684;2023-06-14T15:03:04;28.20;99.90
3566;DHT22;1797;51.844;7.684;2023-06-14T15:05:30;28.30;99.90
3566;DHT22;1797;51.844;7.684;2023-06-14T15:07:55;28.20;99.90
3566;DHT22;1797;51.844;7.684;2023-06-14T15:10:21;28.30;99.90
3566;DHT22;1797;51.844;7.684;2023-06-14T15:12:46;28.40;99.90
3566;DHT22;1797;51.844;7.684;2023-06-14T15:15:12;28.20;99.90
3566;DHT22;1797;51.844;7.684;2023-06-14T15:17:38;28.20;99.90
3566;DHT22;1797;51.844;7.684;2023-06-14T15:20:03;28.20;99.90
3566;DHT22;1797;51.844;7.684;2023-06-14T15:22:31;28.40;99.90
3566;DHT22;1797;51.844;7.684;2023-06-14T15:24:57;28.60;99.90
3566;DHT22;1797;51.844;7.684;2023-06-14T15:27:22;28.70;99.90
3566;DHT22;1797;51.844;7.684;2023-06-14T15:29:48;28.50;99.90
3566;DHT22;1797;51.844;7.684;2023-06-14T15:32:13;28.60;99.90
3566;DHT22;1797;51.844;7.684;2023-06-14T15:34:39;28.90;99.90
3566;DHT22;1797;51.844;7.684;2023-06-14T15:37:06;29.30;99.90
3566;DHT22;1797;51.844;7.684;2023-06-14T15:39:32;29.50;99.90
3566;DHT22;1797;51.844;7.684;2023-06-14T15:41:58;29.90;99.90
3566;DHT22;1797;51.844;7.684;2023-06-14T15:44:25;30.10;99.90
3566;DHT22;1797;51.844;7.684;2023-06-14T15:46:51;30.10;99.90
3566;DHT22;1797;51.844;7.684;2023-06-14T15:49:17;30.10;99.90
3566;DHT22;1797;51.844;7.684;2023-06-14T15:51:43;29.60;99.90
3566;DHT22;1797;51.844;7.684;2023-06-14T15:54:08;29.00;99.90
3566;DHT22;1797;51.844;7.684;2023-06-14T15:56:34;28.60;99.90
3566;DHT22;1797;51.844;7.684;2023-06-14T15:59:00;28.50;99.90
3566;DHT22;1797;51.844;7.684;2023-06-14T16:01:26;28.70;99.90
3566;DHT22;1797;51.844;7.684;2023-06-14T16:03:52;28.90;99.90
3566;DHT22;1797;51.844;7.684;2023-06-14T16:06:18;29.20;99.90
3566;DHT22;1797;51.844;7.684;2023-06-14T16:08:44;29.50;99.90
3566;DHT22;1797;51.844;7.684;2023-06-14T16:11:11;29.60;99.90
3566;DHT22;1797;51.844;7.684;2023-06-14T16:13:36;29.70;99.90
3566;DHT22;1797;51.844;7.684;2023-06-14T16:16:02;29.70;99.90
3566;DHT22;1797;51.844;7.684;2023-06-14T16:18:28;29.30;99.90
3566;DHT22;1797;51.844;7.684;2023-06-14T16:20:53;29.10;99.90
3566;DHT22;1797;51.844;7.684;2023-06-14T16:23:21;29.10;99.90